Pagina principale
METAR-TAF:

METAR-TAF

Aeroporti :

El-Tor, Egitto

latitudine: 28-14N, longitudine: 032-37E, altezza: 21 m

Osservazione

Il bollettino è stato emesso 1 ora e 24 minuti fa, alle 22:00 UTC
Vento 10 kt da ovest/nord-ovest
Temperature 29°C
Umidità 62%
Pressione 1001 hPa
Visibilità 10 km o più
nessuna nube inferiore a 1500 m e nessun cumulonembo

METAR: HETR 222200Z 30010KT CAVOK 29/21 Q1001

Ora: 01:24 (23:24 UTC)

Previsione

Il bollettino è stato emesso 6 ore e 24 minuti fa, alle 17:00 UTC
Previsione valida dal 22 alle 18 UTC al 23 alle 24 UTC
Vento 15 kt da nord-ovest con raffiche fino a 25 kt
Visibilità 10 km o più
nessuna nube inferiore a 1500 m e nessun cumulonembo

TAF: HETR 221700Z 2218/2324 31015G25KT CAVOK

Osservazioni e previsioni meteorologiche di più di 4000 aeroporti (messaggi METAR e TAF).

Le stazioni disponibili sono rappresentate dai dischi gialli e rossi sulla carta.

Puntare il mouse per vedere il nome della stazione.

Clicca sopra per visualizzare le osservazioni e previsioni meteorologiche.

Per cambiare la mappa : fare clic sui pulsanti verdi con una croce nera per ingrandire, il pulsante verde con un trattino per diminuire, o sulla freccia verde per le mappe adiacenti.


METAR-TAF: